Eagle River, Canada
Current Conditions -  °F | °C
As of 6:00 PM on Friday 31 Oct 2014 (Local Time) from CYHD Reporting Station
Clear Clear  
Wind Chill: 25°   Ceiling: Unl
Heat Index: 30°   Visibility: 9mi
Dew Point: 21°   Wind: 5mph
Humidity: 69%   Direction: 210°SSW
Pressure: 30.44"   Gusts: NA
Location:  49.78°N, 93.18°W
Report Text: CYHD 312300Z AUTO 21004KT 9SM CLR M01/M06 A3044 RMK SLP334
Loading
Personal Weather Stations






























Interactive Weather Map
Tropical Storm Tracking
New forecast layout! Learn more

10-Day Weather Forecast

Advertisements
Track Severe Weather on mobile